sensor_id;sensor_type;location;lat;lon;timestamp;pressure;altitude;pressure_sealevel;temperature;humidity
57799;BME280;43626;53.866;30.298;2023-02-28T00:02:09;1035.9;;;-3.5;59.6
57799;BME280;43626;53.866;30.298;2023-02-28T00:06:25;1035.9;;;-3.4;59.7
57799;BME280;43626;53.866;30.298;2023-02-28T00:11:39;1035.9;;;-3.4;59.5
57799;BME280;43626;53.866;30.298;2023-02-28T00:16:18;1035.8;;;-3.4;59.2
57799;BME280;43626;53.866;30.298;2023-02-28T00:21:51;1035.8;;;-3.4;59.1
57799;BME280;43626;53.866;30.298;2023-02-28T00:27:07;1035.8;;;-3.4;59
57799;BME280;43626;53.866;30.298;2023-02-28T00:31:37;1035.7;;;-3.4;59
57799;BME280;43626;53.866;30.298;2023-02-28T00:36:51;1035.6;;;-3.4;59
57799;BME280;43626;53.866;30.298;2023-02-28T00:41:17;1035.5;;;-3.4;59
57799;BME280;43626;53.866;30.298;2023-02-28T00:46:31;1035.5;;;-3.3;59
57799;BME280;43626;53.866;30.298;2023-02-28T00:51:45;1035.5;;;-3.2;58.8
57799;BME280;43626;53.866;30.298;2023-02-28T00:57:09;1035.6;;;-3.2;58.8
57799;BME280;43626;53.866;30.298;2023-02-28T01:01:31;1035.6;;;-3.3;58.5
57799;BME280;43626;53.866;30.298;2023-02-28T01:06:17;1035.6;;;-3.4;58.5
57799;BME280;43626;53.866;30.298;2023-02-28T01:11:59;1035.6;;;-3.5;58.7
57799;BME280;43626;53.866;30.298;2023-02-28T01:16:29;1035.6;;;-3.5;58.7
57799;BME280;43626;53.866;30.298;2023-02-28T01:22:09;1035.6;;;-3.7;59.3
57799;BME280;43626;53.866;30.298;2023-02-28T01:26:45;1035.5;;;-3.7;59.4
57799;BME280;43626;53.866;30.298;2023-02-28T01:31:29;1035.6;;;-3.6;59.4
57799;BME280;43626;53.866;30.298;2023-02-28T01:36:57;1035.6;;;-3.5;59.4
57799;BME280;43626;53.866;30.298;2023-02-28T01:41:43;1035.6;;;-3.4;59.3
57799;BME280;43626;53.866;30.298;2023-02-28T01:47:09;1035.6;;;-3.5;59.3
57799;BME280;43626;53.866;30.298;2023-02-28T01:51:18;1035.5;;;-3.5;59.2
57799;BME280;43626;53.866;30.298;2023-02-28T01:56:37;1035.5;;;-3.6;58.9
57799;BME280;43626;53.866;30.298;2023-02-28T02:01:57;1035.6;;;-3.7;59
57799;BME280;43626;53.866;30.298;2023-02-28T02:06:45;1035.5;;;-3.7;59
57799;BME280;43626;53.866;30.298;2023-02-28T02:12:10;1035.6;;;-3.8;59.3
57799;BME280;43626;53.866;30.298;2023-02-28T02:16:34;1035.5;;;-3.8;59.4
57799;BME280;43626;53.866;30.298;2023-02-28T02:21:25;1035.5;;;-3.6;59.2
57799;BME280;43626;53.866;30.298;2023-02-28T02:27:17;1035.5;;;-3.5;59.2
57799;BME280;43626;53.866;30.298;2023-02-28T02:31:49;1035.6;;;-3.5;59.2
57799;BME280;43626;53.866;30.298;2023-02-28T02:37:12;1035.6;;;-3.5;59.1
57799;BME280;43626;53.866;30.298;2023-02-28T02:41:34;1035.6;;;-3.6;59.2
57799;BME280;43626;53.866;30.298;2023-02-28T02:46:26;1035.5;;;-3.7;59
57799;BME280;43626;53.866;30.298;2023-02-28T02:51:20;1035.5;;;-3.8;59
57799;BME280;43626;53.866;30.298;2023-02-28T02:56:30;1035.6;;;-3.8;58.9
57799;BME280;43626;53.866;30.298;2023-02-28T03:02:08;1035.6;;;-3.8;58.8
57799;BME280;43626;53.866;30.298;2023-02-28T03:06:17;1035.6;;;-3.8;59
57799;BME280;43626;53.866;30.298;2023-02-28T03:11:31;1035.6;;;-3.8;58.8
57799;BME280;43626;53.866;30.298;2023-02-28T03:16:59;1035.6;;;-3.8;58.9
57799;BME280;43626;53.866;30.298;2023-02-28T03:21:46;1035.6;;;-3.8;59
57799;BME280;43626;53.866;30.298;2023-02-28T03:27:10;1035.6;;;-3.8;58.9
57799;BME280;43626;53.866;30.298;2023-02-28T03:31:47;1035.5;;;-3.9;58.9
57799;BME280;43626;53.866;30.298;2023-02-28T03:36:30;1035.5;;;-4;59.1
57799;BME280;43626;53.866;30.298;2023-02-28T03:42:00;1035.4;;;-4.1;59.2
57799;BME280;43626;53.866;30.298;2023-02-28T03:46:44;1035.4;;;-4.1;59.4
57799;BME280;43626;53.866;30.298;2023-02-28T03:52:07;1035.3;;;-4;59.6
57799;BME280;43626;53.866;30.298;2023-02-28T03:56:47;1035.3;;;-4;59.4
57799;BME280;43626;53.866;30.298;2023-02-28T04:01:19;1035.3;;;-4;59.1
57799;BME280;43626;53.866;30.298;2023-02-28T04:07:01;1035.2;;;-4;59.1
57799;BME280;43626;53.866;30.298;2023-02-28T04:11:45;1035.2;;;-4.1;58.8
57799;BME280;43626;53.866;30.298;2023-02-28T04:17:09;1035.1;;;-4.2;59
57799;BME280;43626;53.866;30.298;2023-02-28T04:21:46;1035.1;;;-4.2;59
57799;BME280;43626;53.866;30.298;2023-02-28T04:26:17;1035.1;;;-4.3;58.9
57799;BME280;43626;53.866;30.298;2023-02-28T04:31:59;1035.1;;;-4.3;59
57799;BME280;43626;53.866;30.298;2023-02-28T04:36:43;1035;;;-4.2;59.1
57799;BME280;43626;53.866;30.298;2023-02-28T04:42:09;1035;;;-4.2;59
57799;BME280;43626;53.866;30.298;2023-02-28T04:46:43;1034.9;;;-4.2;58.9
57799;BME280;43626;53.866;30.298;2023-02-28T04:51:17;1034.8;;;-4.3;59
57799;BME280;43626;53.866;30.298;2023-02-28T04:56:55;1034.8;;;-4.3;58.9
57799;BME280;43626;53.866;30.298;2023-02-28T05:01:32;1034.9;;;-4.3;58.8
57799;BME280;43626;53.866;30.298;2023-02-28T05:07:05;1034.9;;;-4.3;58.8
57799;BME280;43626;53.866;30.298;2023-02-28T05:11:43;1034.9;;;-4.3;58.7
57799;BME280;43626;53.866;30.298;2023-02-28T05:16:17;1034.9;;;-4.4;58.7
57799;BME280;43626;53.866;30.298;2023-02-28T05:21:49;1034.9;;;-4.4;58.7
57799;BME280;43626;53.866;30.298;2023-02-28T05:26:17;1035;;;-4.4;58.8
57799;BME280;43626;53.866;30.298;2023-02-28T05:32:08;1035;;;-4.4;58.9
57799;BME280;43626;53.866;30.298;2023-02-28T05:36:53;1035;;;-4.4;59
57799;BME280;43626;53.866;30.298;2023-02-28T05:41:35;1035;;;-4.4;59
57799;BME280;43626;53.866;30.298;2023-02-28T05:46:57;1035;;;-4.4;58.9
57799;BME280;43626;53.866;30.298;2023-02-28T05:51:49;1034.9;;;-4.4;58.5
57799;BME280;43626;53.866;30.298;2023-02-28T05:57:07;1034.8;;;-4.4;58.3
57799;BME280;43626;53.866;30.298;2023-02-28T06:01:32;1034.8;;;-4.4;58.3
57799;BME280;43626;53.866;30.298;2023-02-28T06:06:17;1034.9;;;-4.4;58.3
57799;BME280;43626;53.866;30.298;2023-02-28T06:12:06;1034.8;;;-4.4;58.4
57799;BME280;43626;53.866;30.298;2023-02-28T06:16:28;1034.8;;;-4.4;58.5
57799;BME280;43626;53.866;30.298;2023-02-28T06:22:07;1034.8;;;-4.4;58.3
57799;BME280;43626;53.866;30.298;2023-02-28T06:26:31;1034.8;;;-4.4;58.5
57799;BME280;43626;53.866;30.298;2023-02-28T06:31:17;1034.8;;;-4.2;58.4
57799;BME280;43626;53.866;30.298;2023-02-28T06:36:55;1034.6;;;-4.2;58.3
57799;BME280;43626;53.866;30.298;2023-02-28T06:41:17;1034.6;;;-4.1;58.2
57799;BME280;43626;53.866;30.298;2023-02-28T06:47:07;1034.5;;;-4.1;57.9
57799;BME280;43626;53.866;30.298;2023-02-28T06:52:05;1034.5;;;-4.2;57.9
57799;BME280;43626;53.866;30.298;2023-02-28T06:56:29;1034.5;;;-4.1;57.8
57799;BME280;43626;53.866;30.298;2023-02-28T07:01:57;1034.4;;;-3.9;57.7
57799;BME280;43626;53.866;30.298;2023-02-28T07:06:27;1034.5;;;-3.7;57.1
57799;BME280;43626;53.866;30.298;2023-02-28T07:12:07;1034.5;;;-3.7;56.9
57799;BME280;43626;53.866;30.298;2023-02-28T07:16:43;1034.5;;;-3.6;56.8
57799;BME280;43626;53.866;30.298;2023-02-28T07:21:17;1034.4;;;-3.6;56.7
57799;BME280;43626;53.866;30.298;2023-02-28T07:27:05;1034.3;;;-3.4;56.6
57799;BME280;43626;53.866;30.298;2023-02-28T07:31:17;1034.3;;;-3.4;56.6
57799;BME280;43626;53.866;30.298;2023-02-28T07:37:07;1034.2;;;-3.3;56.4
57799;BME280;43626;53.866;30.298;2023-02-28T07:41:43;1034.2;;;-3.1;56.1
57799;BME280;43626;53.866;30.298;2023-02-28T07:46:27;1034.1;;;-3;55.8
57799;BME280;43626;53.866;30.298;2023-02-28T07:51:57;1034.1;;;-3;55.9
57799;BME280;43626;53.866;30.298;2023-02-28T07:56:17;1033.9;;;-2.9;56
57799;BME280;43626;53.866;30.298;2023-02-28T08:02:03;1033.8;;;-2.8;56
57799;BME280;43626;53.866;30.298;2023-02-28T08:06:31;1033.8;;;-2.6;56.2
57799;BME280;43626;53.866;30.298;2023-02-28T08:11:27;1033.8;;;-2.5;56.2
57799;BME280;43626;53.866;30.298;2023-02-28T08:16:53;1033.8;;;-2.3;56.3
57799;BME280;43626;53.866;30.298;2023-02-28T08:21:29;1033.7;;;-2.2;56.4
57799;BME280;43626;53.866;30.298;2023-02-28T08:27:05;1033.7;;;-2.1;56.1
57799;BME280;43626;53.866;30.298;2023-02-28T08:31:43;1033.6;;;-2.1;56.1
57799;BME280;43626;53.866;30.298;2023-02-28T08:36:37;1033.6;;;-2.1;56.1
57799;BME280;43626;53.866;30.298;2023-02-28T08:41:55;1033.5;;;-1.9;55.9
57799;BME280;43626;53.866;30.298;2023-02-28T08:47:03;1033.5;;;-1.8;55.1
57799;BME280;43626;53.866;30.298;2023-02-28T08:52:05;1033.5;;;-1.7;54.8
57799;BME280;43626;53.866;30.298;2023-02-28T08:56:17;1033.4;;;-1.6;54.5
57799;BME280;43626;53.866;30.298;2023-02-28T09:02:05;1033.4;;;-1.5;54.6
57799;BME280;43626;53.866;30.298;2023-02-28T09:06:55;1033.2;;;-1.4;54.3
57799;BME280;43626;53.866;30.298;2023-02-28T09:11:25;1033.1;;;-1.3;54.3
57799;BME280;43626;53.866;30.298;2023-02-28T09:17:03;1033;;;-1.2;54.2
57799;BME280;43626;53.866;30.298;2023-02-28T09:21:18;1032.9;;;-1;54.1
57799;BME280;43626;53.866;30.298;2023-02-28T09:27:05;1032.9;;;-0.9;53.8
57799;BME280;43626;53.866;30.298;2023-02-28T09:31:55;1032.8;;;-0.8;53
57799;BME280;43626;53.866;30.298;2023-02-28T09:36:37;1032.7;;;-0.7;52
57799;BME280;43626;53.866;30.298;2023-02-28T09:42:05;1032.6;;;-0.6;51.3
57799;BME280;43626;53.866;30.298;2023-02-28T09:46:53;1032.5;;;-0.5;51
57799;BME280;43626;53.866;30.298;2023-02-28T09:52:04;1032.4;;;-0.4;50.2
57799;BME280;43626;53.866;30.298;2023-02-28T09:56:56;1032.3;;;-0.3;50.4
57799;BME280;43626;53.866;30.298;2023-02-28T10:01:18;1032.2;;;-0.1;50
57799;BME280;43626;53.866;30.298;2023-02-28T10:07:06;1032.1;;;0;49.9
57799;BME280;43626;53.866;30.298;2023-02-28T10:11:17;1032;;;0.2;49.3
57799;BME280;43626;53.866;30.298;2023-02-28T10:17:08;1032;;;0.4;49
57799;BME280;43626;53.866;30.298;2023-02-28T10:21:57;1031.8;;;0.5;48.9
57799;BME280;43626;53.866;30.298;2023-02-28T10:26:27;1031.8;;;0.6;48.5
57799;BME280;43626;53.866;30.298;2023-02-28T10:32:08;1031.6;;;0.7;47.3
57799;BME280;43626;53.866;30.298;2023-02-28T10:36:27;1031.5;;;0.9;46.7
57799;BME280;43626;53.866;30.298;2023-02-28T10:42:18;1031.5;;;1;45.3
57799;BME280;43626;53.866;30.298;2023-02-28T10:46:55;1031.4;;;1.1;44.5
57799;BME280;43626;53.866;30.298;2023-02-28T10:51:15;1031.3;;;1.2;44
57799;BME280;43626;53.866;30.298;2023-02-28T10:57:05;1031.2;;;1.3;43.1
57799;BME280;43626;53.866;30.298;2023-02-28T11:01:42;1031.2;;;1.4;43.8
57799;BME280;43626;53.866;30.298;2023-02-28T11:07:04;1031.1;;;1.5;44
57799;BME280;43626;53.866;30.298;2023-02-28T11:11:53;1031;;;1.7;43.5
57799;BME280;43626;53.866;30.298;2023-02-28T11:16:15;1031;;;1.8;42.6
57799;BME280;43626;53.866;30.298;2023-02-28T11:22:03;1030.9;;;1.8;42.1
57799;BME280;43626;53.866;30.298;2023-02-28T11:26:40;1030.7;;;1.9;41.6
57799;BME280;43626;53.866;30.298;2023-02-28T11:32:10;1030.6;;;2;39.7
57799;BME280;43626;53.866;30.298;2023-02-28T11:36:58;1030.4;;;2;38.3
57799;BME280;43626;53.866;30.298;2023-02-28T11:41:29;1030.3;;;2;38.4
57799;BME280;43626;53.866;30.298;2023-02-28T11:47:06;1030.2;;;2.2;37.7
57799;BME280;43626;53.866;30.298;2023-02-28T11:51:44;1030.1;;;2.3;37.5
57799;BME280;43626;53.866;30.298;2023-02-28T11:57:09;1030.1;;;2.4;37.8
57799;BME280;43626;53.866;30.298;2023-02-28T12:02:05;1029.9;;;2.6;38.2
57799;BME280;43626;53.866;30.298;2023-02-28T12:06:27;1029.8;;;2.7;38.3
57799;BME280;43626;53.866;30.298;2023-02-28T12:12:07;1029.7;;;2.6;38.4
57799;BME280;43626;53.866;30.298;2023-02-28T12:16:18;1029.5;;;2.6;38.5
57799;BME280;43626;53.866;30.298;2023-02-28T12:22:12;1029.3;;;2.7;38.4
57799;BME280;43626;53.866;30.298;2023-02-28T12:26:32;1029.1;;;2.8;37.9
57799;BME280;43626;53.866;30.298;2023-02-28T12:31:17;1029.1;;;3;37.5
57799;BME280;43626;53.866;30.298;2023-02-28T12:37:09;1029.1;;;3.2;37.1
57799;BME280;43626;53.866;30.298;2023-02-28T12:41:45;1029.1;;;3.4;36.2
57799;BME280;43626;53.866;30.298;2023-02-28T12:47:09;1029;;;3.4;36.1
57799;BME280;43626;53.866;30.298;2023-02-28T12:52:07;1028.9;;;3.4;36.2
57799;BME280;43626;53.866;30.298;2023-02-28T12:56:39;1028.8;;;3.4;36.5
57799;BME280;43626;53.866;30.298;2023-02-28T13:02:18;1028.7;;;3.4;37.2
57799;BME280;43626;53.866;30.298;2023-02-28T13:06:28;1028.8;;;3.5;37.5
57799;BME280;43626;53.866;30.298;2023-02-28T13:11:51;1028.8;;;3.5;37.5
57799;BME280;43626;53.866;30.298;2023-02-28T13:17:10;1028.8;;;3.5;37.5
57799;BME280;43626;53.866;30.298;2023-02-28T13:21:28;1028.7;;;3.4;37.6
57799;BME280;43626;53.866;30.298;2023-02-28T13:27:11;1028.7;;;3.3;37.5
57799;BME280;43626;53.866;30.298;2023-02-28T13:32:18;1028.5;;;3.1;37.5
57799;BME280;43626;53.866;30.298;2023-02-28T13:36:51;1028.5;;;3;37.9
57799;BME280;43626;53.866;30.298;2023-02-28T13:42:23;1028.4;;;3;38.2
57799;BME280;43626;53.866;30.298;2023-02-28T13:46:15;1028.3;;;3;38.2
57799;BME280;43626;53.866;30.298;2023-02-28T13:52:10;1028.3;;;3.1;38.5
57799;BME280;43626;53.866;30.298;2023-02-28T13:56:43;1028.1;;;3.1;38.7
57799;BME280;43626;53.866;30.298;2023-02-28T14:01:55;1028;;;3.2;39
57799;BME280;43626;53.866;30.298;2023-02-28T14:07:07;1027.9;;;3.2;39.1
57799;BME280;43626;53.866;30.298;2023-02-28T14:11:53;1027.9;;;3.2;39.1
57799;BME280;43626;53.866;30.298;2023-02-28T14:17:08;1028;;;3.1;39.4
57799;BME280;43626;53.866;30.298;2023-02-28T14:21:19;1028;;;3;39.8
57799;BME280;43626;53.866;30.298;2023-02-28T14:26:53;1028;;;3;40
57799;BME280;43626;53.866;30.298;2023-02-28T14:32:06;1028;;;2.9;40.3
57799;BME280;43626;53.866;30.298;2023-02-28T14:36:31;1028;;;2.8;40.9
57799;BME280;43626;53.866;30.298;2023-02-28T14:42:22;1028;;;2.7;41.5
57799;BME280;43626;53.866;30.298;2023-02-28T14:46:41;1028;;;2.6;41.7
57799;BME280;43626;53.866;30.298;2023-02-28T14:51:49;1028;;;2.5;42.4
57799;BME280;43626;53.866;30.298;2023-02-28T14:57:18;1028;;;2.5;42.5
57799;BME280;43626;53.866;30.298;2023-02-28T15:01:27;1028.1;;;2.5;42.6
57799;BME280;43626;53.866;30.298;2023-02-28T15:07:07;1028;;;2.4;43
57799;BME280;43626;53.866;30.298;2023-02-28T15:11:16;1028;;;2.3;43.3
57799;BME280;43626;53.866;30.298;2023-02-28T15:16:52;1028;;;2.3;43.5
57799;BME280;43626;53.866;30.298;2023-02-28T15:22:08;1027.9;;;2.2;43.8
57799;BME280;43626;53.866;30.298;2023-02-28T15:26:23;1028;;;2.1;44.3
57799;BME280;43626;53.866;30.298;2023-02-28T15:32:26;1027.8;;;2;44.9
57799;BME280;43626;53.866;30.298;2023-02-28T15:36:41;1027.8;;;2;45.4
57799;BME280;43626;53.866;30.298;2023-02-28T15:41:51;1027.8;;;2;45.8
57799;BME280;43626;53.866;30.298;2023-02-28T15:47:16;1028.1;;;2;46.1
57799;BME280;43626;53.866;30.298;2023-02-28T15:51:16;1028.2;;;2;46.4
57799;BME280;43626;53.866;30.298;2023-02-28T15:57:06;1028.3;;;2;46.8
57799;BME280;43626;53.866;30.298;2023-02-28T16:01:41;1028.3;;;2;47
57799;BME280;43626;53.866;30.298;2023-02-28T16:06:32;1028.3;;;2;47.3
57799;BME280;43626;53.866;30.298;2023-02-28T16:12:05;1028.3;;;2;47.5
57799;BME280;43626;53.866;30.298;2023-02-28T16:16:16;1028.3;;;2;48.3
57799;BME280;43626;53.866;30.298;2023-02-28T16:22:07;1028.3;;;2;49.3
57799;BME280;43626;53.866;30.298;2023-02-28T16:26:41;1028.4;;;1.9;50.8
57799;BME280;43626;53.866;30.298;2023-02-28T16:31:51;1028.3;;;1.9;52.2
57799;BME280;43626;53.866;30.298;2023-02-28T16:37:07;1028.2;;;1.8;53.2
57799;BME280;43626;53.866;30.298;2023-02-28T16:41:16;1028.1;;;1.8;54
57799;BME280;43626;53.866;30.298;2023-02-28T16:47:08;1028;;;1.8;54.6
57799;BME280;43626;53.866;30.298;2023-02-28T16:51:41;1027.9;;;1.8;54.5
57799;BME280;43626;53.866;30.298;2023-02-28T16:56:51;1027.9;;;1.8;54.2
57799;BME280;43626;53.866;30.298;2023-02-28T17:02:08;1028;;;1.7;54.3
57799;BME280;43626;53.866;30.298;2023-02-28T17:06:16;1028;;;1.7;54.6
57799;BME280;43626;53.866;30.298;2023-02-28T17:12:07;1027.8;;;1.6;54.7
57799;BME280;43626;53.866;30.298;2023-02-28T17:16:53;1027.8;;;1.6;54.9
57799;BME280;43626;53.866;30.298;2023-02-28T17:22:08;1027.6;;;1.6;55.4
57799;BME280;43626;53.866;30.298;2023-02-28T17:26:51;1027.5;;;1.5;56.6
57799;BME280;43626;53.866;30.298;2023-02-28T17:31:15;1027.4;;;1.5;57.2
57799;BME280;43626;53.866;30.298;2023-02-28T17:36:16;1027.3;;;1.5;57.7
57799;BME280;43626;53.866;30.298;2023-02-28T17:41:53;1027.2;;;1.5;57.8
57799;BME280;43626;53.866;30.298;2023-02-28T17:47:05;1027.3;;;1.5;57.7
57799;BME280;43626;53.866;30.298;2023-02-28T17:51:53;1027;;;1.5;57.3
57799;BME280;43626;53.866;30.298;2023-02-28T17:56:17;1026.7;;;1.5;57.1
57799;BME280;43626;53.866;30.298;2023-02-28T18:01:27;1026.5;;;1.5;57
57799;BME280;43626;53.866;30.298;2023-02-28T18:06:51;1026.6;;;1.5;57
57799;BME280;43626;53.866;30.298;2023-02-28T18:12:05;1026.4;;;1.5;57.1
57799;BME280;43626;53.866;30.298;2023-02-28T18:16:53;1026.6;;;1.5;57.2
57799;BME280;43626;53.866;30.298;2023-02-28T18:21:27;1026.5;;;1.5;57.8
57799;BME280;43626;53.866;30.298;2023-02-28T18:26:55;1026.4;;;1.5;58.2
57799;BME280;43626;53.866;30.298;2023-02-28T18:31:51;1026.4;;;1.4;58.5
57799;BME280;43626;53.866;30.298;2023-02-28T18:37:07;1026.2;;;1.4;58.7
57799;BME280;43626;53.866;30.298;2023-02-28T18:41:53;1026.1;;;1.4;59
57799;BME280;43626;53.866;30.298;2023-02-28T18:46:27;1026.1;;;1.4;59
57799;BME280;43626;53.866;30.298;2023-02-28T18:51:17;1026;;;1.5;58.8
57799;BME280;43626;53.866;30.298;2023-02-28T18:56:51;1025.9;;;1.5;58.7
57799;BME280;43626;53.866;30.298;2023-02-28T19:02:05;1025.9;;;1.5;58.6
57799;BME280;43626;53.866;30.298;2023-02-28T19:06:53;1025.8;;;1.5;58.6
57799;BME280;43626;53.866;30.298;2023-02-28T19:11:16;1025.9;;;1.5;58.6
57799;BME280;43626;53.866;30.298;2023-02-28T19:16:41;1025.9;;;1.5;58.6
57799;BME280;43626;53.866;30.298;2023-02-28T19:21:53;1025.9;;;1.5;59.2
57799;BME280;43626;53.866;30.298;2023-02-28T19:27:03;1025.8;;;1.5;59.5
57799;BME280;43626;53.866;30.298;2023-02-28T19:31:51;1025.9;;;1.5;59.7
57799;BME280;43626;53.866;30.298;2023-02-28T19:36:15;1025.8;;;1.5;60
57799;BME280;43626;53.866;30.298;2023-02-28T19:41:27;1025.8;;;1.5;60.3
57799;BME280;43626;53.866;30.298;2023-02-28T19:46:53;1025.9;;;1.5;60.3
57799;BME280;43626;53.866;30.298;2023-02-28T19:52:07;1025.9;;;1.5;60.4
57799;BME280;43626;53.866;30.298;2023-02-28T19:56:45;1025.9;;;1.5;60.5
57799;BME280;43626;53.866;30.298;2023-02-28T20:01:27;1025.9;;;1.5;60.6
57799;BME280;43626;53.866;30.298;2023-02-28T20:06:41;1025.9;;;1.6;60.7
57799;BME280;43626;53.866;30.298;2023-02-28T20:11:53;1025.9;;;1.6;60.9
57799;BME280;43626;53.866;30.298;2023-02-28T20:17:07;1025.9;;;1.6;61.2
57799;BME280;43626;53.866;30.298;2023-02-28T20:21:51;1025.7;;;1.6;61.8
57799;BME280;43626;53.866;30.298;2023-02-28T20:26:35;1025.6;;;1.6;62.3
57799;BME280;43626;53.866;30.298;2023-02-28T20:31:29;1025.5;;;1.6;62.6
57799;BME280;43626;53.866;30.298;2023-02-28T20:36:53;1025.4;;;1.6;62.8
57799;BME280;43626;53.866;30.298;2023-02-28T20:42:07;1025.4;;;1.6;62.9
57799;BME280;43626;53.866;30.298;2023-02-28T20:46:53;1025.2;;;1.7;62.7
57799;BME280;43626;53.866;30.298;2023-02-28T20:51:15;1025.2;;;1.7;62.6
57799;BME280;43626;53.866;30.298;2023-02-28T20:56:27;1025.1;;;1.7;62.6
57799;BME280;43626;53.866;30.298;2023-02-28T21:01:53;1025;;;1.7;62.7
57799;BME280;43626;53.866;30.298;2023-02-28T21:07:07;1025;;;1.7;62.6
57799;BME280;43626;53.866;30.298;2023-02-28T21:11:52;1025;;;1.7;62.7
57799;BME280;43626;53.866;30.298;2023-02-28T21:16:16;1025;;;1.7;63.2
57799;BME280;43626;53.866;30.298;2023-02-28T21:21:42;1025;;;1.6;64
57799;BME280;43626;53.866;30.298;2023-02-28T21:26:16;1024.9;;;1.6;64.6
57799;BME280;43626;53.866;30.298;2023-02-28T21:32:07;1024.9;;;1.6;64.8
57799;BME280;43626;53.866;30.298;2023-02-28T21:36:51;1024.9;;;1.6;65.2
57799;BME280;43626;53.866;30.298;2023-02-28T21:41:27;1024.8;;;1.6;65.5
57799;BME280;43626;53.866;30.298;2023-02-28T21:46:27;1024.7;;;1.6;65.2
57799;BME280;43626;53.866;30.298;2023-02-28T21:51:16;1024.7;;;1.6;65.2
57799;BME280;43626;53.866;30.298;2023-02-28T21:57:07;1024.6;;;1.7;65.2
57799;BME280;43626;53.866;30.298;2023-02-28T22:01:51;1024.5;;;1.7;65.1
57799;BME280;43626;53.866;30.298;2023-02-28T22:06:16;1024.5;;;1.7;65.2
57799;BME280;43626;53.866;30.298;2023-02-28T22:11:41;1024.5;;;1.8;65.2
57799;BME280;43626;53.866;30.298;2023-02-28T22:16:28;1024.5;;;1.7;65.8
57799;BME280;43626;53.866;30.298;2023-02-28T22:22:07;1024.5;;;1.7;66.2
57799;BME280;43626;53.866;30.298;2023-02-28T22:26:51;1024.5;;;1.7;66.5
57799;BME280;43626;53.866;30.298;2023-02-28T22:31:16;1024.6;;;1.7;66.4
57799;BME280;43626;53.866;30.298;2023-02-28T22:36:16;1024.5;;;1.7;66.5
57799;BME280;43626;53.866;30.298;2023-02-28T22:41:27;1024.5;;;1.8;66.6
57799;BME280;43626;53.866;30.298;2023-02-28T22:47:07;1024.5;;;1.8;66.3
57799;BME280;43626;53.866;30.298;2023-02-28T22:51:53;1024.5;;;1.9;66.2
57799;BME280;43626;53.866;30.298;2023-02-28T22:56:28;1024.4;;;1.9;66.1
57799;BME280;43626;53.866;30.298;2023-02-28T23:01:57;1024.5;;;1.9;66
57799;BME280;43626;53.866;30.298;2023-02-28T23:06:51;1024.4;;;2;66
57799;BME280;43626;53.866;30.298;2023-02-28T23:12:07;1024.3;;;2;66.2
57799;BME280;43626;53.866;30.298;2023-02-28T23:16:44;1024.3;;;2;66.7
57799;BME280;43626;53.866;30.298;2023-02-28T23:21:27;1024.2;;;2;66.9
57799;BME280;43626;53.866;30.298;2023-02-28T23:26:27;1024.2;;;2;66.9
57799;BME280;43626;53.866;30.298;2023-02-28T23:31:25;1024.2;;;2;67
57799;BME280;43626;53.866;30.298;2023-02-28T23:36:49;1024.1;;;2;67
57799;BME280;43626;53.866;30.298;2023-02-28T23:41:41;1024.1;;;2.1;67
57799;BME280;43626;53.866;30.298;2023-02-28T23:46:13;1024.1;;;2.1;66.9
57799;BME280;43626;53.866;30.298;2023-02-28T23:51:39;1024;;;2.1;66.9
57799;BME280;43626;53.866;30.298;2023-02-28T23:56:14;1023.9;;;2.1;66.8
